Lublin, Poland
Current Conditions -  °F | °C
As of 9:30 AM on Thursday 18 Dec 2014 (Local Time) from EPLB Reporting Station
Overcast Overcast  
Wind Chill: 30°   Ceiling: 3400
Heat Index: 37°   Visibility: 6mi
Dew Point: 34°   Wind: 12mph
Humidity: 87%   Direction: 220°SW
Pressure: 29.83"   Gusts: NA
Location:  51.24°N, 22.57°E
Report Text: EPLB 180730Z 22010KT 9999 SCT029 BKN034 OVC044 03/01 Q1010
Loading
Personal Weather Stations






























Interactive Weather Map New forecast layout! Learn more

10-Day Weather Forecast

Advertisements
Track Severe Weather on mobile